Terminal Aerodrome Forecast
Issued by NWS

Home | Current Version | Previous Version | Text Only | Print | Product List | Glossary On
Versions: 1 2 3 4 5 6 7 8 9 10 11 12 13 14 15 16 17 18
000
FTUS46 KSEW 302300 RRA
TAFHQM
TAF
KHQM 302343Z 3100/3124 23006KT P6SM SCT250
     FM310300 04005KT P6SM VCFG SCT250
     FM310600 04005KT 4SM BR FEW003 SCT250
     FM310900 04005KT 1SM BR VV002
     FM311200 04006KT 1/4SM FG VV002
     FM311800 07009KT 3SM BR BKN004 BKN250
     FM312100 07009KT P6SM FEW100 OVC250=

USA.gov is the U.S. government's official web portal to all federal, state and local government web resources and services.